Time;durP1;ratioP1;P1;durP2;ratioP2;P2;SDS_P1;SDS_P2;PMS_P1;PMS_P2;Temp;Humidity;BMP_temperature;BMP_pressure;BME280_temperature;BME280_humidity;BME280_pressure;Samples;Min_cycle;Max_cycle;Signal;HPM_P1;HPM_P2
2023/07/12 00:01:27;;;;;;;10.88;3.03;;;;;;;22.70;59.62;100972.63;5033500;28;20037;-81
2023/07/12 00:03:53;;;;;;;13.57;2.42;;;;;;;22.25;61.46;100976.81;5030276;28;20171;-80
2023/07/12 00:06:33;;;;;;;13.20;3.05;;;;;;;22.43;61.56;100971.81;5031767;28;20089;-81
2023/07/12 00:09:06;;;;;;;12.00;2.70;;;;;;;22.41;61.63;100971.00;5031152;28;20029;-81
2023/07/12 00:11:31;;;;;;;10.77;2.83;;;;;;;22.62;62.50;100972.94;5032283;28;20123;-80
2023/07/12 00:13:57;;;;;;;6.65;2.50;;;;;;;22.53;62.85;100973.22;5032411;28;20076;-80
2023/07/12 00:16:28;;;;;;;8.50;2.83;;;;;;;22.62;62.66;100973.78;5034781;28;20029;-81
2023/07/12 00:18:57;;;;;;;9.77;2.58;;;;;;;22.33;64.26;100973.03;5033643;28;20295;-80
2023/07/12 00:21:28;;;;;;;10.70;2.67;;;;;;;22.31;65.29;100977.53;5033883;28;20497;-80
2023/07/12 00:23:58;;;;;;;10.40;2.60;;;;;;;22.54;64.25;100975.84;5032210;28;20128;-79
2023/07/12 00:26:33;;;;;;;9.65;2.42;;;;;;;22.17;65.69;100956.75;5035667;28;20065;-79
2023/07/12 00:29:00;;;;;;;9.00;2.30;;;;;;;22.33;65.27;100952.63;5032008;28;20516;-79
2023/07/12 00:31:25;;;;;;;12.45;2.70;;;;;;;22.31;65.85;100945.66;5038622;28;20067;-78
2023/07/12 00:34:09;;;;;;;8.35;2.75;;;;;;;21.96;67.40;100934.41;5043970;28;20057;-79
2023/07/12 00:36:46;;;;;;;10.57;2.88;;;;;;;21.94;69.09;100919.44;5040988;28;20040;-80
2023/07/12 00:39:12;;;;;;;7.65;2.60;;;;;;;22.08;68.70;100906.63;5043226;28;20080;-79
2023/07/12 00:42:12;;;;;;;9.27;3.00;;;;;;;21.83;70.39;100907.34;5041996;28;20041;-81
2023/07/12 00:44:50;;;;;;;10.05;2.95;;;;;;;21.85;70.14;100908.19;5047538;28;20068;-80
2023/07/12 00:47:20;;;;;;;7.85;2.47;;;;;;;21.75;70.76;100925.34;5045334;28;20059;-80
2023/07/12 00:49:49;;;;;;;10.82;2.80;;;;;;;21.78;70.80;100938.47;5045904;28;20034;-79
2023/07/12 00:52:19;;;;;;;6.72;2.30;;;;;;;22.01;69.39;100935.16;5043932;28;20022;-80
2023/07/12 00:54:47;;;;;;;6.28;2.40;;;;;;;22.06;69.32;100941.16;5043808;28;20038;-80
2023/07/12 00:57:13;;;;;;;8.00;2.50;;;;;;;22.08;68.62;100930.50;5037630;28;20030;-81
2023/07/12 00:59:39;;;;;;;10.43;2.58;;;;;;;22.07;68.51;100942.03;5038345;28;20040;-80
2023/07/12 01:02:23;;;;;;;7.35;2.53;;;;;;;22.15;67.87;100946.16;5042766;28;20033;-79
2023/07/12 01:04:51;;;;;;;7.85;2.53;;;;;;;22.18;67.93;100939.88;5046186;28;20041;-80
2023/07/12 01:07:18;;;;;;;8.48;2.58;;;;;;;22.19;67.95;100929.22;5042238;28;20056;-79
2023/07/12 01:09:44;;;;;;;9.80;2.85;;;;;;;22.17;67.48;100931.06;5039208;28;20096;-80
2023/07/12 01:12:09;;;;;;;7.50;2.70;;;;;;;22.10;67.85;100942.78;5032557;28;20030;-79
2023/07/12 01:14:35;;;;;;;10.50;2.80;;;;;;;21.77;69.41;100960.63;5034027;28;20043;-79
2023/07/12 01:17:03;;;;;;;11.73;3.20;;;;;;;21.95;69.44;100990.19;5035633;28;20102;-79
2023/07/12 01:19:37;;;;;;;8.77;2.80;;;;;;;21.94;69.87;100994.63;5035861;28;20039;-80
2023/07/12 01:22:08;;;;;;;10.57;3.17;;;;;;;22.12;68.57;100956.91;5035331;28;20057;-80
2023/07/12 01:24:37;;;;;;;9.75;2.92;;;;;;;22.10;68.73;100987.06;5034146;28;20043;-81
2023/07/12 01:27:20;;;;;;;9.93;2.97;;;;;;;22.16;68.60;100970.94;5034650;28;20033;-80
2023/07/12 01:29:48;;;;;;;9.35;2.83;;;;;;;22.24;67.92;100948.53;5034989;28;20040;-81
2023/07/12 01:32:18;;;;;;;15.45;5.22;;;;;;;22.15;68.57;100961.22;5036927;28;20049;-81
2023/07/12 01:34:44;;;;;;;13.23;5.40;;;;;;;22.07;69.21;100947.34;5037492;28;20041;-80
2023/07/12 01:37:10;;;;;;;18.50;6.03;;;;;;;22.19;68.72;100944.28;5031865;28;20351;-82
2023/07/12 01:39:41;;;;;;;14.75;5.70;;;;;;;22.10;68.35;100949.88;5047460;28;20427;-79
2023/07/12 01:42:12;;;;;;;13.40;4.85;;;;;;;22.06;68.59;100951.78;5039170;28;20490;-80
2023/07/12 01:44:38;;;;;;;10.93;3.35;;;;;;;22.03;68.79;100951.00;5039425;28;20033;-81
2023/07/12 01:47:15;;;;;;;9.70;3.17;;;;;;;21.88;69.43;100955.00;5039489;28;20037;-81
2023/07/12 01:49:41;;;;;;;9.88;2.72;;;;;;;22.04;68.86;100943.00;5035512;28;20448;-79
2023/07/12 01:52:07;;;;;;;9.18;2.55;;;;;;;22.05;69.12;100936.78;5036511;28;20037;-81
2023/07/12 01:54:32;;;;;;;12.73;2.70;;;;;;;21.97;68.99;100925.53;5035982;28;20041;-80
2023/07/12 01:57:00;;;;;;;11.40;2.90;;;;;;;22.14;68.28;100917.88;5035643;28;20372;-80
2023/07/12 01:59:26;;;;;;;11.43;2.83;;;;;;;21.97;68.78;100930.84;5036560;28;20282;-79
2023/07/12 02:01:53;;;;;;;11.05;2.40;;;;;;;22.00;69.15;100928.09;5036708;28;20037;-78
2023/07/12 02:04:27;;;;;;;10.65;2.53;;;;;;;22.05;69.15;100925.28;5038527;28;20247;-80
2023/07/12 02:06:55;;;;;;;8.77;2.60;;;;;;;21.95;69.46;100929.13;5037056;28;20037;-81
2023/07/12 02:09:39;;;;;;;8.48;2.38;;;;;;;22.16;68.77;100923.13;5036446;28;20041;-80
2023/07/12 02:12:05;;;;;;;8.75;2.65;;;;;;;22.17;68.24;100922.22;5036713;28;20037;-81
2023/07/12 02:14:30;;;;;;;9.05;2.35;;;;;;;22.18;67.68;100930.16;5036887;28;20045;-81
2023/07/12 02:16:58;;;;;;;9.23;2.38;;;;;;;22.06;68.52;100927.03;5036457;28;20053;-81
2023/07/12 02:19:39;;;;;;;9.52;2.45;;;;;;;21.95;68.88;100932.69;5035786;28;20065;-83
2023/07/12 02:22:10;;;;;;;7.85;2.10;;;;;;;22.14;68.78;100940.94;5036570;28;20033;-82
2023/07/12 02:24:36;;;;;;;7.97;2.53;;;;;;;22.15;68.46;100938.19;5036374;28;20038;-81
2023/07/12 02:27:01;;;;;;;8.65;2.60;;;;;;;22.14;68.57;100947.06;5035802;28;20096;-79
2023/07/12 02:29:33;;;;;;;7.30;2.15;;;;;;;22.22;68.16;100944.16;5035387;28;20080;-81
2023/07/12 02:32:07;;;;;;;8.63;2.38;;;;;;;22.26;68.05;100940.50;5035519;28;20120;-83
2023/07/12 02:34:38;;;;;;;9.48;2.30;;;;;;;22.04;68.96;100944.78;5035834;28;20060;-81
2023/07/12 02:37:04;;;;;;;8.52;2.28;;;;;;;22.20;69.05;100938.06;5036462;28;20189;-81
2023/07/12 02:39:35;;;;;;;9.43;2.00;;;;;;;22.12;68.86;100940.09;5034189;28;20418;-79
2023/07/12 02:42:01;;;;;;;5.45;1.98;;;;;;;22.35;67.98;100936.66;5033916;28;20057;-82
2023/07/12 02:44:32;;;;;;;12.13;2.33;;;;;;;22.35;67.95;100932.22;5034975;28;20139;-82
2023/07/12 02:47:04;;;;;;;12.00;2.30;;;;;;;22.38;67.64;100934.78;5034371;28;20044;-81
2023/07/12 02:49:32;;;;;;;11.02;2.60;;;;;;;22.32;67.66;100939.44;5035254;28;20034;-80
2023/07/12 02:52:00;;;;;;;7.90;2.30;;;;;;;22.30;67.71;100944.78;5034905;28;20053;-81
2023/07/12 02:54:38;;;;;;;8.98;2.75;;;;;;;22.39;67.30;100938.28;5034229;28;20248;-83
2023/07/12 02:57:09;;;;;;;12.68;2.58;;;;;;;22.45;67.60;100938.06;5034142;28;20045;-82
2023/07/12 02:59:44;;;;;;;10.25;2.30;;;;;;;22.25;68.11;100938.78;5034756;28;20536;-83
2023/07/12 03:02:12;;;;;;;9.15;2.67;;;;;;;22.21;67.73;100937.13;5033040;28;20126;-82
2023/07/12 03:04:38;;;;;;;9.73;2.53;;;;;;;22.20;67.35;100933.59;5035006;28;20040;-81
2023/07/12 03:07:03;;;;;;;10.10;2.58;;;;;;;22.04;68.32;100940.34;5034740;28;20041;-82
2023/07/12 03:09:29;;;;;;;10.60;2.33;;;;;;;22.12;68.37;100929.47;5035325;28;20124;-81
2023/07/12 03:11:54;;;;;;;11.80;2.60;;;;;;;22.00;68.05;100930.75;5034366;28;20037;-81
2023/07/12 03:14:21;;;;;;;10.75;2.75;;;;;;;21.90;68.92;100926.59;5032947;28;20033;-80
2023/07/12 03:16:46;;;;;;;9.35;2.47;;;;;;;22.03;68.24;100927.09;5034395;28;20536;-80
2023/07/12 03:19:14;;;;;;;10.32;2.63;;;;;;;21.85;68.45;100926.75;5033974;28;20116;-79
2023/07/12 03:21:43;;;;;;;8.48;2.75;;;;;;;21.89;67.37;100945.25;5032856;28;20103;-79
2023/07/12 03:24:12;;;;;;;11.45;2.95;;;;;;;21.80;67.25;100938.44;5034659;28;20079;-81
2023/07/12 03:26:37;;;;;;;8.38;2.40;;;;;;;22.03;66.58;100935.94;5033687;28;20029;-81
2023/07/12 03:29:04;;;;;;;9.40;2.42;;;;;;;21.69;66.59;100935.28;5032806;28;20029;-80
2023/07/12 03:31:36;;;;;;;7.78;2.53;;;;;;;21.46;67.29;100935.97;5033000;28;20048;-83
2023/07/12 03:34:04;;;;;;;9.77;2.80;;;;;;;21.38;66.29;100945.94;5034714;28;20029;-80
2023/07/12 03:36:33;;;;;;;9.52;2.60;;;;;;;21.58;65.62;100942.69;5034874;28;20029;-80
2023/07/12 03:39:00;;;;;;;10.23;2.90;;;;;;;21.53;64.53;100926.91;5033937;28;20376;-80
2023/07/12 03:41:25;;;;;;;8.43;2.78;;;;;;;21.80;64.26;100938.44;5033115;28;20041;-79
2023/07/12 03:43:51;;;;;;;8.27;2.58;;;;;;;21.92;63.52;100929.22;5033546;28;20048;-79
2023/07/12 03:46:17;;;;;;;10.90;2.80;;;;;;;21.75;64.03;100940.38;5032080;28;20040;-80
2023/07/12 03:48:45;;;;;;;9.63;2.80;;;;;;;21.40;65.11;100949.44;5031488;28;20096;-80
2023/07/12 03:51:11;;;;;;;10.88;2.65;;;;;;;21.50;65.18;100939.41;5033426;28;20030;-82
2023/07/12 03:53:38;;;;;;;8.07;2.70;;;;;;;21.67;64.21;100950.34;5031256;28;20057;-80
2023/07/12 03:56:03;;;;;;;12.55;2.80;;;;;;;21.65;64.21;100936.28;5033441;28;20030;-81
2023/07/12 03:58:35;;;;;;;10.07;2.90;;;;;;;21.56;64.73;100944.50;5032317;28;20041;-80
2023/07/12 04:01:08;;;;;;;8.48;3.00;;;;;;;21.53;65.14;100947.28;5033841;28;20037;-82
2023/07/12 04:03:37;;;;;;;9.68;2.97;;;;;;;21.36;66.42;100956.59;5036439;28;20072;-79
2023/07/12 04:06:12;;;;;;;10.55;3.05;;;;;;;21.60;65.38;100964.72;5052274;28;20032;-79
2023/07/12 04:08:44;;;;;;;8.93;2.90;;;;;;;21.69;65.09;100953.84;5049508;28;20053;-81
2023/07/12 04:11:30;;;;;;;9.07;2.85;;;;;;;21.77;64.91;100965.09;5033811;28;20037;-81
2023/07/12 04:13:59;;;;;;;8.00;2.90;;;;;;;21.92;64.33;100969.91;5033286;28;21091;-82
2023/07/12 04:16:25;;;;;;;8.95;2.60;;;;;;;21.99;63.69;100965.31;5034633;28;20040;-78
2023/07/12 04:18:51;;;;;;;10.48;2.60;;;;;;;22.00;64.15;100954.66;5034127;28;20120;-80
2023/07/12 04:21:23;;;;;;;7.20;2.53;;;;;;;21.89;64.71;100958.53;5034283;28;20715;-81
2023/07/12 04:23:55;;;;;;;10.43;2.92;;;;;;;22.05;64.08;100954.47;5033375;28;20033;-81
2023/07/12 04:26:21;;;;;;;7.50;2.60;;;;;;;22.17;63.94;100970.00;5033496;28;20045;-82
2023/07/12 04:28:50;;;;;;;10.52;2.80;;;;;;;21.79;65.19;100982.69;5033732;28;20132;-81
2023/07/12 04:31:18;;;;;;;10.88;2.60;;;;;;;21.98;65.34;100980.34;5033588;28;20029;-82
2023/07/12 04:33:44;;;;;;;10.23;2.83;;;;;;;22.23;64.72;100991.94;5034640;28;20034;-82
2023/07/12 04:36:14;;;;;;;11.13;2.90;;;;;;;22.11;64.83;100987.03;5036314;28;20026;-79
2023/07/12 04:38:40;;;;;;;12.55;3.30;;;;;;;21.92;66.09;100977.00;5041231;28;20045;-78
2023/07/12 04:41:08;;;;;;;9.80;2.70;;;;;;;22.09;65.20;100986.19;5044422;28;20025;-80
2023/07/12 04:43:33;;;;;;;11.95;2.92;;;;;;;22.15;65.21;100991.31;5044568;28;20037;-80
2023/07/12 04:46:03;;;;;;;10.45;3.08;;;;;;;22.13;65.13;100995.81;5044377;28;20060;-83
2023/07/12 04:48:30;;;;;;;9.13;3.22;;;;;;;22.41;64.61;100990.44;5039702;28;20057;-84
2023/07/12 04:50:55;;;;;;;9.90;3.20;;;;;;;22.38;64.19;100985.25;5035105;28;20048;-81
2023/07/12 04:53:27;;;;;;;9.75;3.47;;;;;;;22.43;64.19;100995.72;5034293;28;20042;-82
2023/07/12 04:55:52;;;;;;;9.95;3.42;;;;;;;22.30;65.14;100983.75;5034703;28;20026;-82
2023/07/12 04:58:18;;;;;;;8.10;3.40;;;;;;;22.38;64.82;100981.72;5034054;28;20029;-80
2023/07/12 05:00:44;;;;;;;9.40;3.55;;;;;;;22.48;64.32;100977.84;5036007;28;20521;-80
2023/07/12 05:03:10;;;;;;;10.57;3.55;;;;;;;22.42;65.03;100980.69;5034933;28;20029;-80
2023/07/12 05:05:38;;;;;;;9.40;3.58;;;;;;;22.49;64.60;100984.88;5038304;28;20033;-83
2023/07/12 05:08:06;;;;;;;9.45;3.00;;;;;;;22.69;63.92;100993.03;5037031;28;20034;-80
2023/07/12 05:10:33;;;;;;;13.55;3.40;;;;;;;22.83;63.63;100993.44;5039883;28;20446;-83
2023/07/12 05:12:58;;;;;;;10.63;3.58;;;;;;;22.99;62.59;100985.81;5038956;28;20026;-80
2023/07/12 05:15:27;;;;;;;9.75;3.30;;;;;;;22.78;62.83;100991.88;5038527;28;20045;-80
2023/07/12 05:17:52;;;;;;;10.95;3.38;;;;;;;22.54;63.32;100991.78;5037647;28;20579;-83
2023/07/12 05:20:18;;;;;;;8.50;3.10;;;;;;;22.53;63.86;100987.38;5038517;28;20088;-81
2023/07/12 05:22:44;;;;;;;10.05;3.35;;;;;;;22.45;64.45;101000.03;5036481;28;20402;-83
2023/07/12 05:25:10;;;;;;;12.73;3.63;;;;;;;22.33;64.80;100997.78;5038126;28;20036;-80
2023/07/12 05:27:36;;;;;;;10.60;3.17;;;;;;;22.27;64.12;101004.19;5035136;28;20171;-81
2023/07/12 05:30:05;;;;;;;10.70;3.08;;;;;;;22.41;64.05;101003.72;5036954;28;20048;-81
2023/07/12 05:32:33;;;;;;;11.63;3.30;;;;;;;22.47;63.58;101003.53;5036703;28;20113;-82
2023/07/12 05:34:59;;;;;;;12.23;3.17;;;;;;;22.45;63.85;101015.13;5035957;28;20033;-81
2023/07/12 05:37:30;;;;;;;13.30;4.82;;;;;;;22.54;63.46;101014.81;5035656;28;20033;-82
2023/07/12 05:39:55;;;;;;;11.50;3.20;;;;;;;22.72;62.55;101014.22;5035828;28;20065;-81
2023/07/12 05:42:27;;;;;;;15.10;3.55;;;;;;;22.27;64.99;101004.19;5034591;28;20423;-82
2023/07/12 05:44:55;;;;;;;14.48;3.65;;;;;;;22.59;63.65;101010.22;5035357;28;20605;-83
2023/07/12 05:47:21;;;;;;;14.73;3.65;;;;;;;22.40;64.40;101014.41;5037520;28;20046;-82
2023/07/12 05:49:47;;;;;;;14.10;3.15;;;;;;;22.42;63.71;101007.25;5037905;28;20049;-83
2023/07/12 05:52:25;;;;;;;11.93;3.25;;;;;;;22.30;63.90;101023.59;5048985;28;20034;-82
2023/07/12 05:54:50;;;;;;;13.30;3.33;;;;;;;22.51;62.82;101017.56;5051403;28;20037;-85
2023/07/12 05:57:18;;;;;;;14.40;3.30;;;;;;;22.17;63.57;101031.09;5050610;28;20273;-82
2023/07/12 05:59:44;;;;;;;14.63;3.22;;;;;;;22.74;61.67;101030.13;5049642;28;20087;-82
2023/07/12 06:02:13;;;;;;;11.43;2.90;;;;;;;23.63;58.04;101036.66;5039083;28;20026;-82
2023/07/12 06:04:39;;;;;;;12.75;3.08;;;;;;;23.69;57.46;101031.97;5042093;28;20038;-84
2023/07/12 06:07:07;;;;;;;13.70;3.42;;;;;;;23.48;59.30;101023.94;5050015;28;20044;-83
2023/07/12 06:09:33;;;;;;;12.88;3.00;;;;;;;23.97;58.24;101034.41;5041388;28;20041;-83
2023/07/12 06:12:05;;;;;;;10.75;2.70;;;;;;;24.27;56.87;101035.91;5035908;28;20037;-83
2023/07/12 06:14:30;;;;;;;10.00;3.20;;;;;;;23.64;57.86;101044.59;5037851;28;20040;-81
2023/07/12 06:16:56;;;;;;;9.60;2.80;;;;;;;22.83;59.12;101045.75;5035348;28;20030;-83
2023/07/12 06:19:24;;;;;;;9.70;2.63;;;;;;;23.20;58.14;101034.69;5035607;28;20076;-81
2023/07/12 06:21:49;;;;;;;12.23;3.38;;;;;;;23.01;59.79;101045.97;5035517;28;20375;-83
2023/07/12 06:24:15;;;;;;;10.50;2.80;;;;;;;23.20;59.33;101063.94;5039090;28;20133;-82
2023/07/12 06:26:41;;;;;;;13.20;3.22;;;;;;;23.43;58.24;101064.84;5034802;28;20079;-82
2023/07/12 06:29:12;;;;;;;12.45;3.20;;;;;;;23.98;57.88;101056.59;5035908;28;20066;-84
2023/07/12 06:31:44;;;;;;;12.50;3.10;;;;;;;24.67;55.99;101056.47;5035095;28;20049;-80
2023/07/12 06:34:11;;;;;;;12.40;3.00;;;;;;;25.55;51.92;101051.75;5035395;28;20041;-83
2023/07/12 06:36:36;;;;;;;13.07;3.30;;;;;;;24.91;53.55;101054.56;5035214;28;20133;-80
2023/07/12 06:39:03;;;;;;;12.63;3.22;;;;;;;25.74;50.77;101057.09;5036087;28;20053;-84
2023/07/12 06:41:31;;;;;;;12.70;3.35;;;;;;;26.63;48.31;101051.91;5034923;28;20101;-82
2023/07/12 06:43:56;;;;;;;10.98;2.67;;;;;;;27.15;46.29;101062.63;5032693;28;20083;-84
2023/07/12 06:46:22;;;;;;;12.57;2.90;;;;;;;27.33;46.61;101051.81;5035652;28;20097;-86
2023/07/12 06:48:50;;;;;;;10.00;2.70;;;;;;;27.59;45.75;101060.31;5034462;28;20068;-82
2023/07/12 06:51:16;;;;;;;8.25;2.80;;;;;;;28.17;44.50;101053.50;5036146;28;20030;-83
2023/07/12 06:53:41;;;;;;;10.68;2.90;;;;;;;27.05;45.50;101060.44;5034383;28;20034;-83
2023/07/12 06:56:12;;;;;;;12.90;2.60;;;;;;;26.23;47.54;101056.53;5035487;28;20030;-83
2023/07/12 06:58:38;;;;;;;9.75;2.63;;;;;;;24.86;50.45;101069.00;5034663;28;20037;-84
2023/07/12 07:01:10;;;;;;;10.88;3.13;;;;;;;24.46;52.55;101077.78;5035119;28;20037;-82
2023/07/12 07:03:37;;;;;;;11.25;3.22;;;;;;;24.47;53.36;101076.84;5034881;28;20096;-82
2023/07/12 07:06:04;;;;;;;10.80;3.10;;;;;;;25.73;50.92;101074.09;5035378;28;20064;-82
2023/07/12 07:08:32;;;;;;;11.10;2.95;;;;;;;25.64;49.73;101078.03;5034672;28;20040;-83
2023/07/12 07:10:57;;;;;;;12.30;2.95;;;;;;;25.16;50.20;101083.72;5034118;28;20207;-81
2023/07/12 07:13:24;;;;;;;13.05;3.17;;;;;;;25.35;50.85;101082.00;5033539;28;20163;-81
2023/07/12 07:15:52;;;;;;;11.65;3.20;;;;;;;25.49;49.00;101089.38;5033578;28;20375;-82
2023/07/12 07:18:18;;;;;;;12.05;3.40;;;;;;;24.46;51.94;101091.97;5036577;28;20451;-82
2023/07/12 07:20:52;;;;;;;12.57;3.65;;;;;;;24.09;54.78;101097.88;5035271;28;20088;-80
2023/07/12 07:23:17;;;;;;;12.70;3.58;;;;;;;23.66;56.92;101111.09;5036633;28;20479;-80
2023/07/12 07:25:43;;;;;;;9.90;3.50;;;;;;;23.01;57.11;101115.13;5034650;28;20080;-81
2023/07/12 07:28:08;;;;;;;11.80;2.88;;;;;;;23.32;55.91;101114.94;5034533;28;20128;-79
2023/07/12 07:30:37;;;;;;;11.98;3.20;;;;;;;23.20;56.60;101119.81;5034319;28;20040;-79
2023/07/12 07:33:02;;;;;;;9.00;2.90;;;;;;;23.75;57.07;101121.38;5035334;28;20033;-79
2023/07/12 07:35:28;;;;;;;11.48;2.90;;;;;;;23.44;57.88;101116.28;5033866;28;20269;-81
2023/07/12 07:37:53;;;;;;;10.50;3.10;;;;;;;23.50;58.00;101123.19;5034251;28;20030;-81
2023/07/12 07:40:18;;;;;;;13.93;3.00;;;;;;;22.87;59.01;101133.31;5034651;28;20048;-78
2023/07/12 07:42:47;;;;;;;10.18;3.10;;;;;;;22.95;59.81;101135.72;5033359;28;20041;-82
2023/07/12 07:45:15;;;;;;;13.48;3.03;;;;;;;23.53;57.56;101139.94;5035194;28;20037;-80
2023/07/12 07:47:47;;;;;;;9.93;3.35;;;;;;;23.62;57.52;101138.72;5034698;28;20034;-81
2023/07/12 07:50:12;;;;;;;10.48;2.90;;;;;;;25.03;52.41;101138.53;5035979;28;20101;-81
2023/07/12 07:52:37;;;;;;;12.15;2.88;;;;;;;25.09;51.67;101142.75;5034701;28;20068;-82
2023/07/12 07:55:09;;;;;;;14.95;3.15;;;;;;;25.00;50.61;101144.91;5037343;28;20030;-82
2023/07/12 07:57:37;;;;;;;8.70;2.63;;;;;;;25.65;49.29;101157.22;5037740;28;20095;-84
2023/07/12 08:00:10;;;;;;;11.60;2.42;;;;;;;25.43;49.72;101159.91;5038667;28;20116;-80
2023/07/12 08:02:35;;;;;;;13.47;2.80;;;;;;;25.70;49.30;101160.53;5033954;28;20048;-82
2023/07/12 08:05:07;;;;;;;9.05;2.40;;;;;;;25.15;50.12;101162.03;5035020;28;20037;-79
2023/07/12 08:07:41;;;;;;;10.45;2.55;;;;;;;24.56;50.50;101169.78;5033870;28;20471;-79
2023/07/12 08:10:21;;;;;;;9.23;2.63;;;;;;;25.29;50.25;101161.44;5035236;28;20033;-80
2023/07/12 08:12:48;;;;;;;8.77;2.53;;;;;;;24.75;51.09;101168.13;5035533;28;20048;-81
2023/07/12 08:15:13;;;;;;;10.10;2.50;;;;;;;24.21;52.27;101169.34;5038137;28;20495;-82
2023/07/12 08:17:39;;;;;;;9.25;2.55;;;;;;;24.50;52.20;101170.03;5034698;28;20040;-81
2023/07/12 08:20:08;;;;;;;16.70;2.63;;;;;;;23.77;52.52;101171.00;5034778;28;20103;-81
2023/07/12 08:22:36;;;;;;;10.05;2.67;;;;;;;23.31;55.46;101173.50;5033583;28;20372;-80
2023/07/12 08:25:02;;;;;;;8.40;2.50;;;;;;;23.46;55.05;101183.63;5047020;28;20033;-80
2023/07/12 08:27:31;;;;;;;11.20;2.72;;;;;;;24.62;51.84;101186.41;5052099;28;20042;-80
2023/07/12 08:30:06;;;;;;;8.32;2.50;;;;;;;24.56;51.83;101201.78;5048238;28;20089;-81
2023/07/12 08:32:33;;;;;;;8.63;2.30;;;;;;;24.17;52.85;101196.16;5035903;28;20033;-81
2023/07/12 08:35:00;;;;;;;10.02;2.47;;;;;;;24.38;51.54;101199.84;5044213;28;20035;-81
2023/07/12 08:37:31;;;;;;;6.70;2.60;;;;;;;24.27;51.20;101206.41;5033117;28;20052;-83
2023/07/12 08:40:00;;;;;;;9.32;2.70;;;;;;;24.15;52.33;101198.84;5034512;28;20121;-82
2023/07/12 08:42:37;;;;;;;9.57;2.53;;;;;;;24.00;53.09;101203.91;5033565;28;20403;-82
2023/07/12 08:45:28;;;;;;;7.65;2.45;;;;;;;24.78;51.81;101207.13;5035356;28;20064;-82
2023/07/12 08:48:00;;;;;;;7.28;2.55;;;;;;;24.60;54.10;101222.91;5033978;28;20037;-82
2023/07/12 08:50:39;;;;;;;8.48;2.65;;;;;;;24.84;51.89;101218.41;5034682;28;20033;-81
2023/07/12 08:53:15;;;;;;;8.30;2.78;;;;;;;23.52;56.11;101219.84;5033448;28;20029;-81
2023/07/12 08:55:40;;;;;;;10.38;2.85;;;;;;;22.72;58.41;101229.53;5035316;28;20037;-80
2023/07/12 08:58:18;;;;;;;8.60;2.60;;;;;;;22.92;59.04;101227.13;5037732;28;20089;-80
2023/07/12 09:01:04;;;;;;;8.98;2.80;;;;;;;23.52;57.37;101217.16;5040047;28;20095;-79
2023/07/12 09:03:29;;;;;;;8.10;2.90;;;;;;;24.19;55.57;101216.53;5050055;28;20269;-81
2023/07/12 09:05:58;;;;;;;14.38;2.80;;;;;;;24.65;52.88;101223.59;5033269;28;20033;-82
2023/07/12 09:08:42;;;;;;;11.55;2.70;;;;;;;24.79;51.84;101231.06;5050739;28;20053;-81
2023/07/12 09:11:17;;;;;;;11.07;2.70;;;;;;;24.41;52.77;101226.34;5044666;28;20410;-80
2023/07/12 09:13:46;;;;;;;7.78;2.35;;;;;;;24.23;52.08;101225.25;5034699;28;20034;-82
2023/07/12 09:16:28;;;;;;;6.53;2.47;;;;;;;24.77;50.71;101224.91;5016767;28;20502;-79
2023/07/12 09:19:00;;;;;;;8.73;2.60;;;;;;;24.62;51.36;101230.88;5030270;28;20041;-78
2023/07/12 09:21:47;;;;;;;9.18;2.78;;;;;;;24.12;53.84;101236.28;5032268;28;20033;-78
2023/07/12 09:24:18;;;;;;;7.38;2.80;;;;;;;24.01;53.03;101242.94;5035897;28;20033;-84
2023/07/12 09:26:44;;;;;;;9.45;2.90;;;;;;;24.10;53.89;101234.59;5042709;28;20045;-81
2023/07/12 09:29:14;;;;;;;6.40;2.58;;;;;;;24.34;53.34;101235.50;5046621;28;20540;-80
2023/07/12 09:31:44;;;;;;;8.90;2.67;;;;;;;24.10;54.19;101242.56;5045148;28;20116;-80
2023/07/12 09:34:23;;;;;;;9.48;2.80;;;;;;;23.99;53.03;101244.78;5042303;28;20030;-81
2023/07/12 09:36:58;;;;;;;8.73;3.25;;;;;;;24.12;53.60;101246.94;5041675;28;20032;-82
2023/07/12 09:39:31;;;;;;;7.13;2.75;;;;;;;23.79;53.23;101240.16;5039458;28;20600;-84
2023/07/12 09:42:01;;;;;;;9.05;2.50;;;;;;;24.43;53.55;101243.16;5039695;28;20474;-83
2023/07/12 09:44:27;;;;;;;7.47;2.78;;;;;;;24.25;52.04;101247.38;5040201;28;20076;-82
2023/07/12 09:47:26;;;;;;;10.65;2.72;;;;;;;23.98;51.75;101248.34;5030771;28;20050;-80
2023/07/12 09:50:02;;;;;;;9.00;2.50;;;;;;;24.14;52.68;101237.09;5019931;28;20041;-81
2023/07/12 09:52:36;;;;;;;7.22;2.60;;;;;;;24.07;52.13;101240.91;5043944;28;20047;-82
2023/07/12 09:55:23;;;;;;;6.47;2.40;;;;;;;24.58;50.16;101253.22;5045309;28;20516;-81
2023/07/12 09:57:55;;;;;;;9.68;2.45;;;;;;;24.76;50.12;101239.19;5050010;28;20068;-81
2023/07/12 10:00:43;;;;;;;5.50;2.17;;;;;;;25.32;49.58;101230.69;5045141;28;20041;-83
2023/07/12 10:03:18;;;;;;;6.72;2.33;;;;;;;24.19;51.19;101236.97;5043555;28;20041;-81
2023/07/12 10:05:55;;;;;;;5.13;2.33;;;;;;;24.85;50.82;101229.94;5042408;28;20033;-80
2023/07/12 10:08:45;;;;;;;8.95;2.80;;;;;;;24.85;50.26;101237.94;5043918;28;20366;-80
2023/07/12 10:11:32;;;;;;;6.68;2.30;;;;;;;24.70;51.05;101236.78;5035819;28;20121;-77
2023/07/12 10:14:15;;;;;;;8.57;2.50;;;;;;;24.39;50.52;101234.44;5041928;28;20033;-81
2023/07/12 10:16:46;;;;;;;6.40;2.40;;;;;;;24.97;49.40;101230.38;5040449;28;20056;-81
2023/07/12 10:19:25;;;;;;;8.10;2.45;;;;;;;25.23;48.00;101242.66;5042551;28;20025;-80
2023/07/12 10:22:00;;;;;;;10.68;2.65;;;;;;;25.05;48.99;101246.06;5040875;28;20056;-81
2023/07/12 10:24:36;;;;;;;7.35;2.60;;;;;;;25.12;48.98;101244.03;5036361;28;20025;-82
2023/07/12 10:27:22;;;;;;;6.75;2.55;;;;;;;24.57;50.19;101254.19;5035041;28;20033;-83
2023/07/12 10:30:14;;;;;;;7.47;2.70;;;;;;;25.00;49.57;101256.06;5036073;28;20041;-81
2023/07/12 10:32:46;;;;;;;9.68;2.42;;;;;;;25.08;50.14;101261.94;5035601;28;20083;-81
2023/07/12 10:35:37;;;;;;;6.30;2.70;;;;;;;24.78;50.63;101276.44;5036587;28;20041;-83
2023/07/12 10:38:13;;;;;;;11.40;2.60;;;;;;;24.34;51.77;101270.13;5038258;28;20034;-82
2023/07/12 10:40:48;;;;;;;7.97;2.72;;;;;;;24.24;51.90;101277.63;5038643;28;20069;-82
2023/07/12 10:43:25;;;;;;;7.45;2.85;;;;;;;24.24;52.22;101270.50;5040119;28;20037;-80
2023/07/12 10:45:53;;;;;;;9.07;2.83;;;;;;;24.34;51.37;101268.34;5037362;28;20049;-83
2023/07/12 10:48:31;;;;;;;5.90;2.30;;;;;;;24.59;50.39;101273.63;5040458;28;20073;-82
2023/07/12 10:51:37;;;;;;;8.90;2.55;;;;;;;24.39;50.04;101278.88;5042357;28;20398;-80
2023/07/12 10:54:03;;;;;;;9.10;2.60;;;;;;;24.53;49.73;101268.53;5024439;28;20119;-82
2023/07/12 10:57:22;;;;;;;8.60;2.80;;;;;;;24.22;50.27;101272.34;5019861;28;20064;-82
2023/07/12 10:59:57;;;;;;;9.18;2.50;;;;;;;24.96;49.14;101284.63;5034059;28;20041;-81
2023/07/12 11:02:40;;;;;;;10.38;2.70;;;;;;;24.34;50.56;101279.00;5038827;28;20453;-83
2023/07/12 11:05:45;;;;;;;7.22;2.65;;;;;;;23.91;51.40;101284.97;5041722;28;20037;-82
2023/07/12 11:08:32;;;;;;;7.95;2.70;;;;;;;24.26;51.40;101283.78;5044054;28;20040;-81
2023/07/12 11:11:16;;;;;;;8.07;2.60;;;;;;;24.52;49.95;101296.09;5045122;28;20069;-82
2023/07/12 11:13:44;;;;;;;8.90;2.90;;;;;;;24.46;50.25;101294.53;5036033;28;20045;-83
2023/07/12 11:16:18;;;;;;;9.23;2.75;;;;;;;24.64;50.01;101298.34;5038125;28;20033;-81
2023/07/12 11:18:57;;;;;;;11.30;2.88;;;;;;;24.10;51.33;101290.53;5041402;28;20037;-80
2023/07/12 11:21:50;;;;;;;6.50;2.60;;;;;;;23.88;52.18;101300.22;5045706;28;20083;-82
2023/07/12 11:24:27;;;;;;;7.05;2.72;;;;;;;24.20;50.71;101303.53;5036621;28;20908;-45
2023/07/12 11:27:01;;;;;;;7.72;2.50;;;;;;;24.23;49.05;101302.53;5027310;28;20099;-45
2023/07/12 11:29:32;;;;;;;7.43;2.58;;;;;;;24.66;50.16;101307.13;5026487;28;20033;-46
2023/07/12 11:32:16;;;;;;;5.55;2.63;;;;;;;24.90;49.31;101300.88;5026615;28;20037;-47
2023/07/12 11:34:44;;;;;;;6.40;2.53;;;;;;;24.34;49.29;101296.78;5026356;28;20041;-49
2023/07/12 11:37:21;;;;;;;8.45;2.60;;;;;;;24.51;48.95;101308.59;5027087;28;20061;-50
2023/07/12 11:39:47;;;;;;;8.80;2.40;;;;;;;24.76;48.61;101311.19;5025953;28;20038;-48